Terminal Aerodrome Forecast
Issued by NWS Lake Charles, LA

Home | Current Version | Previous Version | Text Only | Print | Product List | Glossary On
Versions: 1 2 3 4 5 6 7 8 9 10 11 12
000
FTUS44 KLCH 282320
TAFLFT
TAF
KLFT 282320Z 2900/2924 18008KT P6SM SKC
     FM290300 17003KT P6SM SKC
      TEMPO 2910/2914 3SM BR
     FM291400 17006KT P6SM SCT250
     FM291800 20012G18KT P6SM SCT250=

USA.gov is the U.S. government's official web portal to all federal, state and local government web resources and services.